logo
Search for airport 
image banner adimage banner adimage banner ad
image banner ad

LFNH - Carpentras

Located in Carpentras, France

ICAO - LFNH, IATA -

Data provided by Airmate  

General information

Coordinates: N44°1'21" E5°5'24"
Elevation is 388 feet MSL.
Magnetic variation is 1.90° East
View others Airports in Provence-Alpes-Côte-d'Azur

Operational data

Special qualification required
Current time UTC:
Current local time:
Weather at : LFMV - Avignon Caumont ( 20 km )
METAR: LFMV 040830Z AUTO 34017KT 320V020 CAVOK 21/11 Q1024 BECMG 35020G30KT
TAF: TAF LFMV 040200Z 0403/0503 35020G30KT CAVOK BECMG 0418/0420 35012KT TEMPO 0500/0503 VRB03KT
View NOTAMs / SUP AIP / TFR affecting this airport [VIEW]
Communications frequencies: [VIEW]

Runways:

RWY identifierQFULength (ft)Width (ft)SurfaceLDA (ft)
13132°393766ASPH3675
31312°393766ASPH3937
13R132°2789262GRASS2789
31L312°2789262GRASS2231

Airport contact information

Address: Carpentras France

Other aviation service providers

Aviation club (not for profit)

Aéroclub du Comtat Venaissin

Aéroclub du Comtat Venaissin
info@acdcv.fr+33490630141

Club Rsa Adcav Du Vaucluse

Club Rsa Adcav Du Vaucluse
adcav84@free.fr0603662799

Satellite view of LFNH